createdAt,value
2017-08-09T00:00:16.343Z,987.6
2017-08-09T00:01:17.003Z,987.6
2017-08-09T00:02:17.659Z,987.6
2017-08-09T00:03:18.315Z,987.6
2017-08-09T00:04:18.971Z,987.6
2017-08-09T00:05:19.877Z,987.6
2017-08-09T00:06:20.534Z,987.7
2017-08-09T00:07:21.192Z,987.7
2017-08-09T00:08:21.846Z,987.7
2017-08-09T00:09:22.504Z,987.7
2017-08-09T00:10:23.407Z,987.6
2017-08-09T00:11:24.063Z,987.7
2017-08-09T00:12:24.719Z,987.7
2017-08-09T00:13:25.376Z,987.8
2017-08-09T00:14:26.031Z,987.8
2017-08-09T00:15:26.937Z,987.8
2017-08-09T00:16:27.594Z,987.8
2017-08-09T00:17:28.248Z,987.8
2017-08-09T00:18:28.904Z,987.8
2017-08-09T00:19:29.561Z,987.8
2017-08-09T00:20:30.554Z,987.9
2017-08-09T00:21:31.210Z,987.9
2017-08-09T00:22:31.866Z,987.9
2017-08-09T00:23:32.522Z,987.9
2017-08-09T00:24:33.177Z,988.0
2017-08-09T00:25:34.085Z,988.1
2017-08-09T00:26:34.741Z,988.1
2017-08-09T00:27:35.395Z,988.1
2017-08-09T00:28:36.052Z,988.2
2017-08-09T00:29:36.708Z,988.2
2017-08-09T00:30:37.614Z,988.3
2017-08-09T00:31:38.274Z,988.2
2017-08-09T00:32:38.927Z,988.2
2017-08-09T00:33:39.585Z,988.2
2017-08-09T00:34:40.241Z,988.3
2017-08-09T00:35:41.145Z,988.2
2017-08-09T00:36:41.802Z,988.2
2017-08-09T00:37:42.460Z,988.2
2017-08-09T00:38:43.121Z,988.3
2017-08-09T00:39:43.771Z,988.2
2017-08-09T00:40:44.727Z,988.3
2017-08-09T00:41:45.385Z,988.3
2017-08-09T00:42:46.040Z,988.3
2017-08-09T00:43:46.696Z,988.3
2017-08-09T00:44:47.351Z,988.3
2017-08-09T00:45:48.257Z,988.3
2017-08-09T00:46:48.911Z,988.3
2017-08-09T00:47:49.568Z,988.3
2017-08-09T00:48:50.260Z,988.3
2017-08-09T00:49:50.915Z,988.3
2017-08-09T00:50:51.870Z,988.2
2017-08-09T00:51:52.527Z,988.3
2017-08-09T00:52:53.182Z,988.3
2017-08-09T00:53:53.838Z,988.3
2017-08-09T00:54:54.503Z,988.3
2017-08-09T00:55:55.397Z,988.3
2017-08-09T00:56:56.052Z,988.3
2017-08-09T00:57:56.707Z,988.2
2017-08-09T00:58:57.364Z,988.2
2017-08-09T00:59:58.018Z,988.2
2017-08-09T01:00:58.929Z,988.2
2017-08-09T01:01:59.584Z,988.2
2017-08-09T01:03:00.241Z,988.1
2017-08-09T01:04:00.895Z,988.0
2017-08-09T01:05:01.563Z,988.0
2017-08-09T01:06:02.513Z,988.0
2017-08-09T01:07:03.168Z,988.0
2017-08-09T01:08:03.824Z,988.1
2017-08-09T01:09:04.478Z,988.1
2017-08-09T01:10:05.134Z,988.1
2017-08-09T01:11:06.038Z,988.1
2017-08-09T01:12:06.699Z,988.0
2017-08-09T01:13:07.356Z,988.0
2017-08-09T01:14:08.010Z,988.0
2017-08-09T01:15:08.666Z,988.0
2017-08-09T01:16:09.623Z,988.0
2017-08-09T01:17:10.277Z,988.1
2017-08-09T01:18:10.932Z,988.1
2017-08-09T01:19:11.591Z,988.1
2017-08-09T01:20:12.278Z,988.1
2017-08-09T01:21:13.185Z,988.1
2017-08-09T01:22:13.841Z,988.1
2017-08-09T01:23:14.496Z,988.1
2017-08-09T01:24:15.150Z,988.1
2017-08-09T01:25:15.805Z,988.1
2017-08-09T01:26:16.760Z,988.1
2017-08-09T01:27:17.417Z,988.1
2017-08-09T01:28:18.072Z,988.1
2017-08-09T01:29:18.734Z,988.1
2017-08-09T01:30:19.388Z,988.1
2017-08-09T01:31:20.293Z,988.1
2017-08-09T01:32:20.952Z,988.1
2017-08-09T01:33:21.606Z,988.1
2017-08-09T01:34:22.297Z,988.1
2017-08-09T01:35:22.950Z,988.1
2017-08-09T01:36:23.857Z,988.2
2017-08-09T01:37:24.512Z,988.2
2017-08-09T01:38:25.168Z,988.2
2017-08-09T01:39:25.823Z,988.2
2017-08-09T01:40:26.479Z,988.3
2017-08-09T01:41:27.433Z,988.3
2017-08-09T01:42:28.088Z,988.3
2017-08-09T01:43:28.743Z,988.3
2017-08-09T01:44:29.403Z,988.3
2017-08-09T01:45:30.051Z,988.4
2017-08-09T01:46:31.005Z,988.4
2017-08-09T01:47:31.662Z,988.4
2017-08-09T01:48:32.315Z,988.3
2017-08-09T01:49:32.969Z,988.3
2017-08-09T01:50:33.624Z,988.2
2017-08-09T01:51:34.530Z,988.2
2017-08-09T01:52:35.185Z,988.2
2017-08-09T01:53:35.841Z,988.2
2017-08-09T01:54:36.496Z,988.2
2017-08-09T01:55:37.150Z,988.2
2017-08-09T01:56:38.108Z,988.2
2017-08-09T01:57:38.761Z,988.3
2017-08-09T01:58:39.417Z,988.3
2017-08-09T01:59:40.072Z,988.3
2017-08-09T02:00:40.725Z,988.3
2017-08-09T02:01:41.680Z,988.3
2017-08-09T02:02:42.334Z,988.3
2017-08-09T02:03:42.988Z,988.3
2017-08-09T02:04:43.642Z,988.3
2017-08-09T02:05:44.297Z,988.3
2017-08-09T02:06:45.201Z,988.3
2017-08-09T02:07:45.857Z,988.3
2017-08-09T02:08:46.512Z,988.3
2017-08-09T02:09:47.165Z,988.2
2017-08-09T02:10:47.820Z,988.2
2017-08-09T02:11:48.725Z,988.2
2017-08-09T02:12:49.379Z,988.2
2017-08-09T02:13:50.035Z,988.3
2017-08-09T02:14:50.690Z,988.3
2017-08-09T02:15:51.347Z,988.2
2017-08-09T02:16:52.300Z,988.2
2017-08-09T02:17:52.953Z,988.2
2017-08-09T02:18:53.608Z,988.1
2017-08-09T02:19:54.263Z,988.1
2017-08-09T02:20:54.918Z,988.1
2017-08-09T02:21:55.825Z,988.1
2017-08-09T02:22:56.479Z,988.1
2017-08-09T02:23:57.132Z,988.0
2017-08-09T02:24:57.788Z,988.0
2017-08-09T02:25:58.441Z,988.0
2017-08-09T02:26:59.396Z,988.0
2017-08-09T02:28:00.051Z,988.0
2017-08-09T02:29:00.705Z,988.1
2017-08-09T02:30:01.360Z,988.1
2017-08-09T02:31:02.016Z,988.1
2017-08-09T02:32:02.970Z,988.1
2017-08-09T02:33:03.624Z,988.1
2017-08-09T02:34:04.280Z,988.1
2017-08-09T02:35:04.932Z,988.2
2017-08-09T02:36:05.588Z,988.2
2017-08-09T02:37:06.492Z,988.2
2017-08-09T02:38:07.145Z,988.2
2017-08-09T02:39:07.800Z,988.2
2017-08-09T02:40:08.457Z,988.2
2017-08-09T02:41:09.111Z,988.2
2017-08-09T02:42:10.022Z,988.2
2017-08-09T02:43:10.677Z,988.1
2017-08-09T02:44:11.330Z,988.2
2017-08-09T02:45:11.984Z,988.2
2017-08-09T02:46:12.639Z,988.2
2017-08-09T02:47:13.594Z,988.2
2017-08-09T02:48:14.248Z,988.2
2017-08-09T02:49:14.902Z,988.2
2017-08-09T02:50:15.563Z,988.2
2017-08-09T02:51:16.249Z,988.2
2017-08-09T02:52:17.204Z,988.3
2017-08-09T02:53:17.893Z,988.2
2017-08-09T02:54:18.548Z,988.3
2017-08-09T02:55:19.202Z,988.2
2017-08-09T02:56:19.856Z,988.2
2017-08-09T02:57:20.771Z,988.2
2017-08-09T02:58:21.425Z,988.2
2017-08-09T02:59:22.081Z,988.2
2017-08-09T03:00:22.734Z,988.3
2017-08-09T03:01:23.389Z,988.2
2017-08-09T03:02:24.382Z,988.2
2017-08-09T03:03:25.036Z,988.3
2017-08-09T03:04:25.692Z,988.3
2017-08-09T03:05:26.349Z,988.4
2017-08-09T03:06:27.002Z,988.4
2017-08-09T03:07:27.908Z,988.4
2017-08-09T03:08:28.565Z,988.3
2017-08-09T03:09:29.222Z,988.3
2017-08-09T03:10:29.879Z,988.3
2017-08-09T03:11:30.532Z,988.3
2017-08-09T03:12:31.436Z,988.3
2017-08-09T03:13:32.090Z,988.3
2017-08-09T03:14:32.744Z,988.3
2017-08-09T03:15:33.399Z,988.2
2017-08-09T03:16:34.052Z,988.3
2017-08-09T03:17:34.995Z,988.2
2017-08-09T03:18:35.648Z,988.2
2017-08-09T03:19:36.301Z,988.2
2017-08-09T03:20:36.957Z,988.2
2017-08-09T03:21:37.646Z,988.3
2017-08-09T03:22:38.551Z,988.3
2017-08-09T03:23:39.204Z,988.3
2017-08-09T03:24:39.895Z,988.3
2017-08-09T03:25:40.549Z,988.3
2017-08-09T03:26:41.202Z,988.3
2017-08-09T03:27:42.106Z,988.3
2017-08-09T03:28:42.763Z,988.3
2017-08-09T03:29:43.414Z,988.3
2017-08-09T03:30:44.069Z,988.3
2017-08-09T03:31:44.724Z,988.3
2017-08-09T03:32:45.681Z,988.3
2017-08-09T03:33:46.336Z,988.3
2017-08-09T03:34:46.991Z,988.3
2017-08-09T03:35:47.645Z,988.4
2017-08-09T03:36:48.300Z,988.4
2017-08-09T03:37:49.245Z,988.3
2017-08-09T03:38:49.935Z,988.3
2017-08-09T03:39:50.591Z,988.3
2017-08-09T03:40:51.247Z,988.3
2017-08-09T03:41:51.900Z,988.4
2017-08-09T03:42:52.805Z,988.3
2017-08-09T03:43:53.459Z,988.4
2017-08-09T03:44:54.114Z,988.4
2017-08-09T03:45:54.772Z,988.4
2017-08-09T03:46:55.424Z,988.4
2017-08-09T03:47:56.329Z,988.4
2017-08-09T03:48:56.985Z,988.4
2017-08-09T03:49:57.641Z,988.4
2017-08-09T03:50:58.347Z,988.4
2017-08-09T03:51:59.003Z,988.4
2017-08-09T03:52:59.908Z,988.4
2017-08-09T03:54:00.565Z,988.4
2017-08-09T03:55:01.220Z,988.4
2017-08-09T03:56:01.877Z,988.4
2017-08-09T03:57:02.539Z,988.4
2017-08-09T03:58:03.491Z,988.4
2017-08-09T03:59:04.146Z,988.4
2017-08-09T04:00:04.801Z,988.4
2017-08-09T04:01:05.459Z,988.4
2017-08-09T04:02:06.122Z,988.4
2017-08-09T04:03:07.076Z,988.5
2017-08-09T04:04:07.734Z,988.4
2017-08-09T04:05:08.391Z,988.4
2017-08-09T04:06:09.050Z,988.4
2017-08-09T04:07:09.707Z,988.4
2017-08-09T04:08:10.665Z,988.4
2017-08-09T04:09:11.322Z,988.5
2017-08-09T04:10:11.982Z,988.5
2017-08-09T04:11:12.640Z,988.5
2017-08-09T04:12:13.295Z,988.5
2017-08-09T04:13:14.204Z,988.5
2017-08-09T04:14:14.865Z,988.6
2017-08-09T04:15:15.521Z,988.6
2017-08-09T04:16:16.177Z,988.6
2017-08-09T04:17:16.834Z,988.6
2017-08-09T04:18:17.743Z,988.6
2017-08-09T04:19:18.402Z,988.6
2017-08-09T04:20:19.058Z,988.6
2017-08-09T04:21:19.714Z,988.7
2017-08-09T04:22:20.374Z,988.7
2017-08-09T04:23:21.283Z,988.7
2017-08-09T04:24:21.941Z,988.7
2017-08-09T04:25:22.598Z,988.7
2017-08-09T04:26:23.258Z,988.8
2017-08-09T04:27:23.917Z,988.8
2017-08-09T04:28:24.882Z,988.8
2017-08-09T04:29:25.540Z,988.8
2017-08-09T04:30:26.200Z,988.8
2017-08-09T04:31:26.858Z,988.8
2017-08-09T04:32:27.517Z,988.8
2017-08-09T04:33:28.427Z,988.8
2017-08-09T04:34:29.086Z,988.8
2017-08-09T04:35:29.744Z,988.9
2017-08-09T04:36:30.404Z,988.9
2017-08-09T04:37:31.062Z,989.0
2017-08-09T04:38:32.020Z,989.0
2017-08-09T04:39:32.680Z,989.0
2017-08-09T04:40:33.337Z,989.0
2017-08-09T04:41:33.997Z,989.0
2017-08-09T04:42:34.655Z,989.1
2017-08-09T04:43:35.614Z,989.1
2017-08-09T04:44:36.274Z,989.1
2017-08-09T04:45:36.932Z,989.2
2017-08-09T04:46:37.596Z,989.2
2017-08-09T04:47:38.250Z,989.2
2017-08-09T04:48:39.209Z,989.2
2017-08-09T04:49:39.880Z,989.2
2017-08-09T04:50:40.535Z,989.2
2017-08-09T04:51:41.194Z,989.2
2017-08-09T04:52:41.865Z,989.2
2017-08-09T04:53:42.812Z,989.2
2017-08-09T04:54:43.471Z,989.2
2017-08-09T04:55:44.129Z,989.2
2017-08-09T04:56:44.789Z,989.2
2017-08-09T04:57:45.448Z,989.3
2017-08-09T04:58:46.358Z,989.3
2017-08-09T04:59:47.018Z,989.3
2017-08-09T05:00:47.677Z,989.3
2017-08-09T05:01:48.343Z,989.3
2017-08-09T05:02:48.994Z,989.4
2017-08-09T05:03:49.954Z,989.4
2017-08-09T05:04:50.614Z,989.4
2017-08-09T05:05:51.273Z,989.5
2017-08-09T05:06:51.933Z,989.5
2017-08-09T05:07:52.591Z,989.4
2017-08-09T05:08:53.588Z,989.4
2017-08-09T05:09:54.246Z,989.4
2017-08-09T05:10:54.906Z,989.4
2017-08-09T05:11:55.564Z,989.4
2017-08-09T05:12:56.223Z,989.4
2017-08-09T05:13:57.131Z,989.4
2017-08-09T05:14:57.795Z,989.4
2017-08-09T05:15:58.452Z,989.4
2017-08-09T05:16:59.146Z,989.5
2017-08-09T05:17:59.804Z,989.5
2017-08-09T05:19:00.724Z,989.5
2017-08-09T05:20:01.370Z,989.5
2017-08-09T05:21:02.029Z,989.6
2017-08-09T05:22:02.690Z,989.6
2017-08-09T05:23:03.359Z,989.6
2017-08-09T05:24:04.309Z,989.6
2017-08-09T05:25:04.966Z,989.6
2017-08-09T05:26:05.626Z,989.6
2017-08-09T05:27:06.286Z,989.6
2017-08-09T05:28:06.948Z,989.6
2017-08-09T05:29:07.857Z,989.6
2017-08-09T05:30:08.519Z,989.6
2017-08-09T05:31:09.215Z,989.5
2017-08-09T05:32:09.875Z,989.5
2017-08-09T05:33:10.534Z,989.4
2017-08-09T05:34:11.446Z,989.4
2017-08-09T05:35:12.105Z,989.5
2017-08-09T05:36:12.766Z,989.5
2017-08-09T05:37:13.426Z,989.5
2017-08-09T05:38:14.086Z,989.4
2017-08-09T05:39:14.996Z,989.5
2017-08-09T05:40:15.661Z,989.5
2017-08-09T05:41:16.321Z,989.4
2017-08-09T05:42:16.980Z,989.5
2017-08-09T05:43:17.642Z,989.5
2017-08-09T05:44:18.604Z,989.5
2017-08-09T05:45:19.265Z,989.5
2017-08-09T05:46:19.925Z,989.6
2017-08-09T05:47:20.588Z,989.5
2017-08-09T05:48:21.287Z,989.5
2017-08-09T05:49:22.198Z,989.6
2017-08-09T05:50:22.860Z,989.6
2017-08-09T05:51:23.523Z,989.6
2017-08-09T05:52:24.187Z,989.6
2017-08-09T05:53:24.849Z,989.6
2017-08-09T05:54:25.810Z,989.6
2017-08-09T05:55:26.471Z,989.6
2017-08-09T05:56:27.130Z,989.6
2017-08-09T05:57:27.794Z,989.6
2017-08-09T05:58:28.493Z,989.6
2017-08-09T05:59:29.490Z,989.6
2017-08-09T06:00:30.151Z,989.7
2017-08-09T06:01:30.816Z,989.7
2017-08-09T06:02:31.473Z,989.7
2017-08-09T06:03:32.136Z,989.7
2017-08-09T06:04:33.048Z,989.7
2017-08-09T06:05:33.709Z,989.7
2017-08-09T06:06:34.409Z,989.7
2017-08-09T06:07:35.105Z,989.7
2017-08-09T06:08:35.765Z,989.7
2017-08-09T06:09:36.679Z,989.7
2017-08-09T06:10:37.339Z,989.7
2017-08-09T06:11:38.036Z,989.7
2017-08-09T06:12:38.734Z,989.7
2017-08-09T06:13:39.398Z,989.7
2017-08-09T06:14:40.309Z,989.7
2017-08-09T06:15:40.972Z,989.8
2017-08-09T06:16:41.634Z,989.8
2017-08-09T06:17:42.333Z,989.9
2017-08-09T06:18:42.997Z,989.9
2017-08-09T06:19:43.957Z,989.9
2017-08-09T06:20:44.620Z,989.9
2017-08-09T06:21:45.280Z,989.9
2017-08-09T06:22:45.943Z,989.9
2017-08-09T06:23:46.604Z,989.9
2017-08-09T06:24:47.615Z,990.0
2017-08-09T06:25:48.279Z,989.9
2017-08-09T06:26:48.941Z,989.9
2017-08-09T06:27:49.640Z,990.0
2017-08-09T06:28:50.304Z,989.9
2017-08-09T06:29:51.267Z,989.9
2017-08-09T06:30:51.929Z,990.0
2017-08-09T06:31:52.593Z,990.0
2017-08-09T06:32:53.256Z,990.0
2017-08-09T06:33:53.919Z,990.0
2017-08-09T06:34:54.920Z,990.0
2017-08-09T06:35:55.583Z,990.0
2017-08-09T06:36:56.246Z,990.0
2017-08-09T06:37:56.908Z,990.0
2017-08-09T06:38:57.572Z,989.9
2017-08-09T06:39:58.487Z,990.0
2017-08-09T06:40:59.150Z,990.0
2017-08-09T06:41:59.811Z,990.1
2017-08-09T06:43:00.473Z,990.0
2017-08-09T06:44:01.136Z,990.0
2017-08-09T06:45:02.049Z,990.0
2017-08-09T06:46:02.711Z,990.0
2017-08-09T06:47:03.412Z,990.0
2017-08-09T06:48:04.075Z,990.0
2017-08-09T06:49:04.738Z,990.1
2017-08-09T06:50:05.649Z,990.1
2017-08-09T06:51:06.312Z,990.1
2017-08-09T06:52:06.973Z,990.2
2017-08-09T06:53:07.636Z,990.2
2017-08-09T06:54:08.298Z,990.2
2017-08-09T06:55:09.210Z,990.2
2017-08-09T06:56:09.875Z,990.2
2017-08-09T06:57:10.538Z,990.3
2017-08-09T06:58:11.201Z,990.2
2017-08-09T06:59:11.865Z,990.3
2017-08-09T07:00:12.812Z,990.3
2017-08-09T07:01:13.475Z,990.3
2017-08-09T07:02:14.138Z,990.3
2017-08-09T07:03:14.802Z,990.2
2017-08-09T07:04:15.463Z,990.3
2017-08-09T07:05:16.426Z,990.2
2017-08-09T07:06:17.089Z,990.2
2017-08-09T07:07:17.751Z,990.2
2017-08-09T07:08:18.451Z,990.2
2017-08-09T07:09:19.113Z,990.2
2017-08-09T07:10:20.022Z,990.3
2017-08-09T07:11:20.685Z,990.3
2017-08-09T07:12:21.349Z,990.3
2017-08-09T07:13:22.013Z,990.3
2017-08-09T07:14:22.676Z,990.2
2017-08-09T07:15:23.588Z,990.3
2017-08-09T07:16:24.250Z,990.2
2017-08-09T07:17:24.916Z,990.3
2017-08-09T07:18:25.620Z,990.3
2017-08-09T07:19:26.274Z,990.3
2017-08-09T07:20:27.238Z,990.3
2017-08-09T07:21:27.900Z,990.3
2017-08-09T07:22:28.562Z,990.3
2017-08-09T07:23:29.226Z,990.3
2017-08-09T07:24:29.889Z,990.3
2017-08-09T07:25:30.803Z,990.4
2017-08-09T07:26:31.463Z,990.4
2017-08-09T07:27:32.127Z,990.4
2017-08-09T07:28:32.790Z,990.4
2017-08-09T07:29:33.452Z,990.5
2017-08-09T07:30:34.362Z,990.4
2017-08-09T07:31:35.024Z,990.4
2017-08-09T07:32:35.705Z,990.4
2017-08-09T07:33:36.352Z,990.4
2017-08-09T07:34:37.014Z,990.5
2017-08-09T07:35:37.929Z,990.5
2017-08-09T07:36:38.590Z,990.5
2017-08-09T07:37:39.253Z,990.5
2017-08-09T07:38:39.919Z,990.5
2017-08-09T07:39:40.579Z,990.5
2017-08-09T07:40:41.490Z,990.6
2017-08-09T07:41:42.151Z,990.6
2017-08-09T07:42:42.816Z,990.6
2017-08-09T07:43:43.475Z,990.6
2017-08-09T07:44:44.173Z,990.6
2017-08-09T07:45:45.085Z,990.6
2017-08-09T07:46:45.750Z,990.6
2017-08-09T07:47:46.410Z,990.7
2017-08-09T07:48:47.077Z,990.7
2017-08-09T07:49:47.752Z,990.7
2017-08-09T07:50:48.669Z,990.6
2017-08-09T07:51:49.356Z,990.7
2017-08-09T07:52:50.007Z,990.7
2017-08-09T07:53:50.672Z,990.7
2017-08-09T07:54:51.356Z,990.7
2017-08-09T07:55:52.300Z,990.7
2017-08-09T07:56:52.962Z,990.7
2017-08-09T07:57:53.623Z,990.7
2017-08-09T07:58:54.285Z,990.6
2017-08-09T07:59:54.957Z,990.7
2017-08-09T08:00:55.871Z,990.7
2017-08-09T08:01:56.539Z,990.7
2017-08-09T08:02:57.202Z,990.7
2017-08-09T08:03:57.866Z,990.7
2017-08-09T08:04:58.564Z,990.7
2017-08-09T08:05:59.479Z,990.7
2017-08-09T08:07:00.144Z,990.7
2017-08-09T08:08:00.807Z,990.7
2017-08-09T08:09:01.471Z,990.7
2017-08-09T08:10:02.130Z,990.7
2017-08-09T08:11:03.043Z,990.7
2017-08-09T08:12:03.708Z,990.7
2017-08-09T08:13:04.370Z,990.7
2017-08-09T08:14:05.032Z,990.7
2017-08-09T08:15:05.701Z,990.7
2017-08-09T08:16:06.665Z,990.7
2017-08-09T08:17:07.332Z,990.7
2017-08-09T08:18:08.032Z,990.7
2017-08-09T08:19:08.694Z,990.7
2017-08-09T08:20:09.357Z,990.7
2017-08-09T08:21:10.269Z,990.7
2017-08-09T08:22:10.930Z,990.7
2017-08-09T08:23:11.596Z,990.7
2017-08-09T08:24:12.258Z,990.7
2017-08-09T08:25:12.921Z,990.7
2017-08-09T08:26:13.884Z,990.7
2017-08-09T08:27:14.548Z,990.7
2017-08-09T08:28:15.220Z,990.8
2017-08-09T08:29:15.881Z,990.8
2017-08-09T08:30:16.547Z,990.8
2017-08-09T08:31:17.461Z,990.8
2017-08-09T08:32:18.126Z,990.8
2017-08-09T08:33:18.839Z,990.8
2017-08-09T08:34:19.509Z,990.8
2017-08-09T08:35:20.166Z,990.8
2017-08-09T08:36:21.130Z,990.8
2017-08-09T08:37:21.795Z,990.9
2017-08-09T08:38:22.458Z,990.9
2017-08-09T08:39:23.122Z,990.9
2017-08-09T08:40:23.788Z,990.8
2017-08-09T08:41:24.702Z,990.9
2017-08-09T08:42:25.368Z,990.9
2017-08-09T08:43:26.029Z,990.9
2017-08-09T08:44:26.727Z,990.9
2017-08-09T08:45:27.391Z,990.9
2017-08-09T08:46:28.305Z,990.9
2017-08-09T08:47:28.968Z,990.9
2017-08-09T08:48:29.630Z,990.8
2017-08-09T08:49:30.297Z,990.8
2017-08-09T08:50:30.960Z,990.9
2017-08-09T08:51:31.874Z,990.9
2017-08-09T08:52:32.538Z,990.8
2017-08-09T08:53:33.202Z,990.8
2017-08-09T08:54:33.863Z,990.8
2017-08-09T08:55:34.528Z,990.9
2017-08-09T08:56:35.442Z,990.8
2017-08-09T08:57:36.106Z,990.8
2017-08-09T08:58:36.769Z,990.8
2017-08-09T08:59:37.433Z,990.9
2017-08-09T09:00:38.096Z,990.8
2017-08-09T09:01:39.058Z,990.9
2017-08-09T09:02:39.722Z,990.9
2017-08-09T09:03:40.386Z,990.9
2017-08-09T09:04:41.049Z,990.9
2017-08-09T09:05:41.713Z,990.9
2017-08-09T09:06:42.627Z,990.9
2017-08-09T09:07:43.292Z,990.9
2017-08-09T09:08:43.958Z,990.9
2017-08-09T09:09:44.620Z,990.9
2017-08-09T09:10:45.282Z,990.9
2017-08-09T09:11:46.247Z,990.9
2017-08-09T09:12:46.949Z,990.8
2017-08-09T09:13:47.613Z,990.9
2017-08-09T09:14:48.275Z,990.9
2017-08-09T09:15:48.937Z,990.8
2017-08-09T09:16:49.853Z,990.9
2017-08-09T09:17:50.518Z,990.9
2017-08-09T09:18:51.182Z,990.9
2017-08-09T09:19:51.845Z,990.9
2017-08-09T09:20:52.509Z,990.9
2017-08-09T09:21:53.423Z,990.9
2017-08-09T09:22:54.088Z,990.9
2017-08-09T09:23:54.754Z,991.0
2017-08-09T09:24:55.418Z,991.0
2017-08-09T09:25:56.084Z,991.0
2017-08-09T09:26:56.999Z,990.9
2017-08-09T09:27:57.663Z,990.9
2017-08-09T09:28:58.329Z,990.9
2017-08-09T09:29:58.992Z,991.0
2017-08-09T09:30:59.655Z,991.0
2017-08-09T09:32:00.571Z,991.0
2017-08-09T09:33:01.236Z,991.0
2017-08-09T09:34:01.903Z,990.9
2017-08-09T09:35:02.569Z,990.9
2017-08-09T09:36:03.270Z,990.9
2017-08-09T09:37:04.188Z,991.0
2017-08-09T09:38:04.856Z,990.9
2017-08-09T09:39:05.524Z,991.0
2017-08-09T09:40:06.191Z,991.0
2017-08-09T09:41:06.859Z,991.0
2017-08-09T09:42:07.777Z,991.0
2017-08-09T09:43:08.446Z,991.1
2017-08-09T09:44:09.116Z,991.2
2017-08-09T09:45:09.786Z,991.3
2017-08-09T09:46:10.458Z,991.5
2017-08-09T09:47:11.379Z,991.7
2017-08-09T09:48:12.051Z,991.7
2017-08-09T09:49:12.722Z,991.8
2017-08-09T09:50:13.395Z,992.0
2017-08-09T09:51:14.067Z,991.9
2017-08-09T09:52:15.046Z,991.9
2017-08-09T09:53:15.718Z,992.0
2017-08-09T09:54:16.388Z,991.9
2017-08-09T09:55:17.061Z,992.0
2017-08-09T09:56:17.732Z,991.9
2017-08-09T09:57:18.654Z,992.0
2017-08-09T09:58:19.362Z,992.0
2017-08-09T09:59:20.035Z,991.9
2017-08-09T10:00:20.707Z,992.0
2017-08-09T10:01:21.378Z,992.0
2017-08-09T10:02:22.302Z,992.0
2017-08-09T10:03:22.980Z,992.0
2017-08-09T10:04:23.648Z,991.9
2017-08-09T10:05:24.318Z,991.7
2017-08-09T10:06:24.991Z,992.0
2017-08-09T10:07:25.964Z,991.8
2017-08-09T10:08:26.637Z,991.8
2017-08-09T10:09:27.309Z,991.9
2017-08-09T10:10:28.019Z,991.9
2017-08-09T10:11:28.692Z,991.9
2017-08-09T10:12:29.618Z,991.8
2017-08-09T10:13:30.287Z,991.8
2017-08-09T10:14:30.958Z,992.0
2017-08-09T10:15:31.631Z,991.9
2017-08-09T10:16:32.306Z,991.9
2017-08-09T10:17:33.231Z,992.0
2017-08-09T10:18:33.906Z,992.0
2017-08-09T10:19:34.578Z,992.0
2017-08-09T10:20:35.254Z,992.1
2017-08-09T10:21:35.928Z,992.1
2017-08-09T10:22:36.850Z,992.1
2017-08-09T10:23:37.527Z,992.1
2017-08-09T10:24:38.203Z,992.1
2017-08-09T10:25:38.875Z,991.9
2017-08-09T10:26:39.554Z,992.3
2017-08-09T10:27:40.524Z,992.3
2017-08-09T10:28:41.238Z,992.4
2017-08-09T10:29:41.913Z,992.4
2017-08-09T10:30:42.588Z,992.4
2017-08-09T10:31:43.266Z,992.5
2017-08-09T10:32:44.198Z,992.6
2017-08-09T10:33:44.867Z,992.7
2017-08-09T10:34:45.543Z,992.8
2017-08-09T10:35:46.218Z,992.8
2017-08-09T10:36:46.893Z,992.9
2017-08-09T10:37:47.819Z,993.1
2017-08-09T10:38:48.497Z,993.1
2017-08-09T10:39:49.205Z,991.3
2017-08-09T10:40:49.882Z,993.2
2017-08-09T10:41:50.559Z,993.3
2017-08-09T10:42:51.486Z,993.4
2017-08-09T10:43:52.162Z,993.5
2017-08-09T10:44:52.838Z,993.4
2017-08-09T10:45:53.514Z,991.8
2017-08-09T10:46:54.189Z,992.7
2017-08-09T10:47:55.115Z,993.4
2017-08-09T10:48:55.800Z,993.4
2017-08-09T10:49:56.475Z,993.4
2017-08-09T10:50:57.151Z,993.3
2017-08-09T10:51:57.828Z,993.2
2017-08-09T10:52:58.804Z,993.2
2017-08-09T10:53:59.480Z,993.3
2017-08-09T10:55:00.156Z,993.3
2017-08-09T10:56:00.850Z,993.3
2017-08-09T10:57:01.510Z,993.1
2017-08-09T10:58:02.474Z,993.0
2017-08-09T10:59:03.149Z,992.9
2017-08-09T11:00:03.825Z,992.9
2017-08-09T11:01:04.502Z,992.9
2017-08-09T11:02:05.176Z,992.9
2017-08-09T11:03:06.102Z,992.7
2017-08-09T11:04:06.777Z,992.2
2017-08-09T11:05:07.452Z,992.5
2017-08-09T11:06:08.129Z,992.5
2017-08-09T11:07:08.807Z,992.7
2017-08-09T11:08:09.767Z,992.7
2017-08-09T11:09:10.446Z,992.4
2017-08-09T11:10:11.123Z,992.2
2017-08-09T11:11:11.800Z,992.4
2017-08-09T11:12:12.474Z,992.4
2017-08-09T11:13:13.399Z,992.5
2017-08-09T11:14:14.077Z,992.5
2017-08-09T11:15:14.752Z,992.5
2017-08-09T11:16:15.465Z,992.5
2017-08-09T11:17:16.147Z,992.4
2017-08-09T11:18:17.071Z,992.3
2017-08-09T11:19:17.746Z,991.7
2017-08-09T11:20:18.424Z,991.8
2017-08-09T11:21:19.137Z,991.8
2017-08-09T11:22:19.834Z,991.6
2017-08-09T11:23:20.788Z,991.5
2017-08-09T11:24:21.465Z,991.5
2017-08-09T11:25:22.142Z,991.4
2017-08-09T11:26:22.819Z,991.4
2017-08-09T11:27:23.514Z,991.4
2017-08-09T11:28:24.470Z,991.4
2017-08-09T11:29:25.143Z,991.5
2017-08-09T11:30:25.816Z,991.3
2017-08-09T11:31:26.488Z,991.2
2017-08-09T11:32:27.165Z,991.3
2017-08-09T11:33:28.137Z,991.3
2017-08-09T11:34:28.813Z,991.2
2017-08-09T11:35:29.487Z,991.2
2017-08-09T11:36:30.160Z,991.2
2017-08-09T11:37:30.836Z,991.1
2017-08-09T11:38:31.796Z,991.1
2017-08-09T11:39:32.469Z,991.1
2017-08-09T11:40:33.145Z,991.2
2017-08-09T11:41:33.819Z,991.2
2017-08-09T11:42:34.497Z,991.1
2017-08-09T11:43:35.475Z,991.1
2017-08-09T11:44:36.146Z,991.1
2017-08-09T11:45:36.822Z,991.1
2017-08-09T11:46:37.499Z,991.1
2017-08-09T11:47:38.210Z,991.1
2017-08-09T11:48:39.191Z,991.1
2017-08-09T11:49:39.869Z,991.1
2017-08-09T11:50:40.540Z,991.1
2017-08-09T11:51:41.215Z,991.2
2017-08-09T11:52:41.887Z,991.2
2017-08-09T11:53:42.816Z,991.1
2017-08-09T11:54:43.489Z,991.2
2017-08-09T11:55:44.163Z,991.0
2017-08-09T11:56:44.873Z,990.9
2017-08-09T11:57:45.549Z,991.0
2017-08-09T11:58:46.523Z,991.2
2017-08-09T11:59:47.199Z,991.2
2017-08-09T12:00:47.872Z,991.2
2017-08-09T12:01:48.545Z,991.2
2017-08-09T12:02:49.221Z,991.2
2017-08-09T12:03:50.150Z,991.2
2017-08-09T12:04:50.825Z,991.2
2017-08-09T12:05:51.533Z,991.1
2017-08-09T12:06:52.204Z,990.8
2017-08-09T12:07:52.878Z,991.1
2017-08-09T12:08:53.940Z,991.2
2017-08-09T12:09:54.652Z,991.2
2017-08-09T12:10:55.325Z,990.8
2017-08-09T12:11:55.999Z,991.2
2017-08-09T12:12:56.674Z,991.2
2017-08-09T12:13:57.634Z,991.2
2017-08-09T12:14:58.308Z,991.1
2017-08-09T12:15:58.982Z,991.1
2017-08-09T12:16:59.694Z,991.2
2017-08-09T12:18:00.366Z,991.1
2017-08-09T12:19:01.289Z,991.3
2017-08-09T12:20:01.965Z,991.3
2017-08-09T12:21:02.638Z,991.3
2017-08-09T12:22:03.314Z,991.3
2017-08-09T12:23:03.987Z,991.4
2017-08-09T12:24:04.963Z,991.4
2017-08-09T12:25:05.700Z,991.4
2017-08-09T12:26:06.386Z,991.3
2017-08-09T12:27:07.060Z,991.4
2017-08-09T12:28:07.734Z,991.4
2017-08-09T12:29:08.708Z,991.3
2017-08-09T12:30:09.382Z,991.6
2017-08-09T12:31:10.058Z,991.6
2017-08-09T12:32:10.770Z,991.6
2017-08-09T12:33:11.444Z,991.6
2017-08-09T12:34:12.368Z,991.5
2017-08-09T12:35:13.043Z,991.5
2017-08-09T12:36:13.720Z,991.5
2017-08-09T12:37:14.396Z,991.3
2017-08-09T12:38:15.074Z,991.3
2017-08-09T12:39:15.999Z,991.3
2017-08-09T12:40:16.711Z,991.3
2017-08-09T12:41:17.385Z,991.0
2017-08-09T12:42:18.058Z,990.9
2017-08-09T12:43:18.736Z,991.3
2017-08-09T12:44:19.661Z,991.3
2017-08-09T12:45:20.337Z,991.3
2017-08-09T12:46:21.047Z,991.3
2017-08-09T12:47:21.723Z,991.3
2017-08-09T12:48:22.399Z,991.2
2017-08-09T12:49:23.377Z,991.2
2017-08-09T12:50:24.050Z,991.2
2017-08-09T12:51:24.722Z,991.0
2017-08-09T12:52:25.397Z,991.1
2017-08-09T12:53:26.072Z,991.3
2017-08-09T12:54:26.995Z,991.0
2017-08-09T12:55:27.669Z,991.1
2017-08-09T12:56:28.342Z,991.1
2017-08-09T12:57:29.016Z,991.2
2017-08-09T12:58:29.689Z,991.2
2017-08-09T12:59:30.611Z,991.2
2017-08-09T13:00:31.283Z,991.2
2017-08-09T13:01:31.958Z,991.3